sensor_id;sensor_type;location;lat;lon;timestamp;P1;durP1;ratioP1;P2;durP2;ratioP2
44046;SDS011;29713;-33.888;151.150;2022-12-18T00:01:37;1.65;;;0.63;;
44046;SDS011;29713;-33.888;151.150;2022-12-18T00:04:10;1.15;;;0.40;;
44046;SDS011;29713;-33.888;151.150;2022-12-18T00:06:45;3.10;;;0.63;;
44046;SDS011;29713;-33.888;151.150;2022-12-18T00:09:13;2.45;;;0.50;;
44046;SDS011;29713;-33.888;151.150;2022-12-18T00:11:40;2.22;;;0.50;;
44046;SDS011;29713;-33.888;151.150;2022-12-18T00:14:08;1.83;;;0.50;;
44046;SDS011;29713;-33.888;151.150;2022-12-18T00:16:37;2.88;;;0.50;;
44046;SDS011;29713;-33.888;151.150;2022-12-18T00:19:05;3.50;;;0.80;;
44046;SDS011;29713;-33.888;151.150;2022-12-18T00:21:33;2.42;;;0.50;;
44046;SDS011;29713;-33.888;151.150;2022-12-18T00:24:02;2.22;;;0.57;;
44046;SDS011;29713;-33.888;151.150;2022-12-18T00:26:30;2.28;;;0.43;;
44046;SDS011;29713;-33.888;151.150;2022-12-18T00:28:59;2.63;;;0.60;;
44046;SDS011;29713;-33.888;151.150;2022-12-18T00:31:28;2.47;;;0.68;;
44046;SDS011;29713;-33.888;151.150;2022-12-18T00:33:55;2.38;;;0.30;;
44046;SDS011;29713;-33.888;151.150;2022-12-18T00:36:24;2.35;;;0.50;;
44046;SDS011;29713;-33.888;151.150;2022-12-18T00:39:00;1.63;;;0.38;;
44046;SDS011;29713;-33.888;151.150;2022-12-18T00:41:29;0.95;;;0.30;;
44046;SDS011;29713;-33.888;151.150;2022-12-18T00:44:15;1.23;;;0.40;;
44046;SDS011;29713;-33.888;151.150;2022-12-18T00:46:44;0.68;;;0.30;;
44046;SDS011;29713;-33.888;151.150;2022-12-18T00:49:13;3.10;;;0.70;;
44046;SDS011;29713;-33.888;151.150;2022-12-18T00:51:41;2.35;;;0.63;;
44046;SDS011;29713;-33.888;151.150;2022-12-18T00:54:09;2.05;;;0.80;;
44046;SDS011;29713;-33.888;151.150;2022-12-18T00:56:37;3.20;;;0.80;;
44046;SDS011;29713;-33.888;151.150;2022-12-18T00:59:05;4.07;;;0.60;;
44046;SDS011;29713;-33.888;151.150;2022-12-18T01:01:32;2.35;;;0.57;;
44046;SDS011;29713;-33.888;151.150;2022-12-18T01:04:01;2.30;;;0.80;;
44046;SDS011;29713;-33.888;151.150;2022-12-18T01:06:29;3.17;;;0.70;;
44046;SDS011;29713;-33.888;151.150;2022-12-18T01:08:56;2.75;;;0.63;;
44046;SDS011;29713;-33.888;151.150;2022-12-18T01:11:24;1.35;;;0.40;;
44046;SDS011;29713;-33.888;151.150;2022-12-18T01:13:52;2.40;;;0.70;;
44046;SDS011;29713;-33.888;151.150;2022-12-18T01:16:20;3.83;;;0.82;;
44046;SDS011;29713;-33.888;151.150;2022-12-18T01:18:51;3.40;;;0.70;;
44046;SDS011;29713;-33.888;151.150;2022-12-18T01:21:19;3.60;;;0.98;;
44046;SDS011;29713;-33.888;151.150;2022-12-18T01:23:51;4.78;;;0.90;;
44046;SDS011;29713;-33.888;151.150;2022-12-18T01:26:22;3.13;;;0.75;;
44046;SDS011;29713;-33.888;151.150;2022-12-18T01:28:50;4.72;;;0.70;;
44046;SDS011;29713;-33.888;151.150;2022-12-18T01:31:20;3.53;;;0.88;;
44046;SDS011;29713;-33.888;151.150;2022-12-18T01:33:52;4.13;;;0.95;;
44046;SDS011;29713;-33.888;151.150;2022-12-18T01:36:25;2.80;;;0.70;;
44046;SDS011;29713;-33.888;151.150;2022-12-18T01:38:59;5.43;;;0.60;;
44046;SDS011;29713;-33.888;151.150;2022-12-18T01:41:29;4.25;;;1.17;;
44046;SDS011;29713;-33.888;151.150;2022-12-18T01:49:51;5.07;;;1.13;;
44046;SDS011;29713;-33.888;151.150;2022-12-18T01:52:20;5.40;;;1.13;;
44046;SDS011;29713;-33.888;151.150;2022-12-18T01:54:49;4.47;;;1.30;;
44046;SDS011;29713;-33.888;151.150;2022-12-18T01:57:18;9.00;;;1.67;;
44046;SDS011;29713;-33.888;151.150;2022-12-18T01:59:46;6.07;;;1.75;;
44046;SDS011;29713;-33.888;151.150;2022-12-18T02:02:16;7.97;;;1.90;;
44046;SDS011;29713;-33.888;151.150;2022-12-18T02:04:45;10.82;;;2.33;;
44046;SDS011;29713;-33.888;151.150;2022-12-18T02:15:39;6.65;;;2.10;;
44046;SDS011;29713;-33.888;151.150;2022-12-18T02:18:23;14.10;;;4.43;;
44046;SDS011;29713;-33.888;151.150;2022-12-18T02:20:57;6.95;;;2.35;;
44046;SDS011;29713;-33.888;151.150;2022-12-18T02:26:46;8.30;;;1.95;;
44046;SDS011;29713;-33.888;151.150;2022-12-18T02:29:22;11.63;;;4.18;;
44046;SDS011;29713;-33.888;151.150;2022-12-18T02:32:00;8.60;;;2.05;;
44046;SDS011;29713;-33.888;151.150;2022-12-18T02:34:31;8.32;;;1.77;;
44046;SDS011;29713;-33.888;151.150;2022-12-18T02:37:03;8.85;;;1.70;;
44046;SDS011;29713;-33.888;151.150;2022-12-18T02:39:34;7.72;;;1.60;;
44046;SDS011;29713;-33.888;151.150;2022-12-18T02:42:05;5.45;;;1.42;;
44046;SDS011;29713;-33.888;151.150;2022-12-18T02:44:41;6.55;;;1.85;;
44046;SDS011;29713;-33.888;151.150;2022-12-18T02:47:13;8.00;;;1.58;;
44046;SDS011;29713;-33.888;151.150;2022-12-18T02:50:07;8.13;;;2.90;;
44046;SDS011;29713;-33.888;151.150;2022-12-18T02:55:51;19.42;;;9.50;;
44046;SDS011;29713;-33.888;151.150;2022-12-18T02:58:55;10.98;;;6.13;;
44046;SDS011;29713;-33.888;151.150;2022-12-18T03:01:52;5.97;;;2.10;;
44046;SDS011;29713;-33.888;151.150;2022-12-18T03:06:59;5.68;;;1.58;;
44046;SDS011;29713;-33.888;151.150;2022-12-18T03:09:34;5.55;;;1.15;;
44046;SDS011;29713;-33.888;151.150;2022-12-18T03:12:09;7.38;;;1.38;;
44046;SDS011;29713;-33.888;151.150;2022-12-18T03:14:50;5.75;;;1.17;;
44046;SDS011;29713;-33.888;151.150;2022-12-18T03:17:45;5.40;;;1.50;;
44046;SDS011;29713;-33.888;151.150;2022-12-18T03:20:21;5.53;;;1.58;;
44046;SDS011;29713;-33.888;151.150;2022-12-18T03:22:51;6.38;;;2.10;;
44046;SDS011;29713;-33.888;151.150;2022-12-18T03:25:25;6.68;;;1.70;;
44046;SDS011;29713;-33.888;151.150;2022-12-18T03:27:55;8.18;;;1.63;;
44046;SDS011;29713;-33.888;151.150;2022-12-18T03:30:24;6.85;;;1.50;;
44046;SDS011;29713;-33.888;151.150;2022-12-18T03:33:08;4.75;;;1.73;;
44046;SDS011;29713;-33.888;151.150;2022-12-18T03:35:45;5.32;;;1.30;;
44046;SDS011;29713;-33.888;151.150;2022-12-18T03:38:12;5.15;;;1.13;;
44046;SDS011;29713;-33.888;151.150;2022-12-18T03:40:59;6.22;;;1.60;;
44046;SDS011;29713;-33.888;151.150;2022-12-18T03:49:11;9.55;;;1.42;;
44046;SDS011;29713;-33.888;151.150;2022-12-18T03:51:48;3.40;;;1.23;;
44046;SDS011;29713;-33.888;151.150;2022-12-18T03:54:26;4.85;;;1.30;;
44046;SDS011;29713;-33.888;151.150;2022-12-18T03:56:56;3.97;;;1.25;;
44046;SDS011;29713;-33.888;151.150;2022-12-18T03:59:29;8.55;;;1.42;;
44046;SDS011;29713;-33.888;151.150;2022-12-18T04:01:58;6.72;;;1.52;;
44046;SDS011;29713;-33.888;151.150;2022-12-18T04:04:27;5.50;;;1.08;;
44046;SDS011;29713;-33.888;151.150;2022-12-18T04:06:56;7.60;;;1.42;;
44046;SDS011;29713;-33.888;151.150;2022-12-18T04:09:24;11.63;;;1.58;;
44046;SDS011;29713;-33.888;151.150;2022-12-18T04:11:53;5.43;;;1.55;;
44046;SDS011;29713;-33.888;151.150;2022-12-18T04:14:20;5.43;;;1.20;;
44046;SDS011;29713;-33.888;151.150;2022-12-18T04:16:47;4.88;;;1.70;;
44046;SDS011;29713;-33.888;151.150;2022-12-18T04:19:15;3.92;;;1.30;;
44046;SDS011;29713;-33.888;151.150;2022-12-18T04:21:42;5.28;;;1.33;;
44046;SDS011;29713;-33.888;151.150;2022-12-18T04:24:09;4.05;;;1.40;;
44046;SDS011;29713;-33.888;151.150;2022-12-18T04:26:37;3.90;;;1.60;;
44046;SDS011;29713;-33.888;151.150;2022-12-18T04:29:04;4.80;;;1.33;;
44046;SDS011;29713;-33.888;151.150;2022-12-18T04:31:31;7.78;;;1.58;;
44046;SDS011;29713;-33.888;151.150;2022-12-18T04:33:58;4.78;;;1.25;;
44046;SDS011;29713;-33.888;151.150;2022-12-18T04:36:26;6.25;;;2.17;;
44046;SDS011;29713;-33.888;151.150;2022-12-18T04:38:53;4.88;;;1.15;;
44046;SDS011;29713;-33.888;151.150;2022-12-18T04:41:21;6.40;;;1.50;;
44046;SDS011;29713;-33.888;151.150;2022-12-18T04:43:48;3.88;;;1.33;;
44046;SDS011;29713;-33.888;151.150;2022-12-18T04:46:15;4.88;;;1.55;;
44046;SDS011;29713;-33.888;151.150;2022-12-18T04:48:44;5.13;;;1.40;;
44046;SDS011;29713;-33.888;151.150;2022-12-18T04:51:12;4.68;;;1.30;;
44046;SDS011;29713;-33.888;151.150;2022-12-18T04:53:40;6.78;;;1.30;;
44046;SDS011;29713;-33.888;151.150;2022-12-18T04:56:09;4.10;;;1.10;;
44046;SDS011;29713;-33.888;151.150;2022-12-18T04:58:38;4.57;;;1.30;;
44046;SDS011;29713;-33.888;151.150;2022-12-18T05:01:07;4.85;;;1.10;;
44046;SDS011;29713;-33.888;151.150;2022-12-18T05:03:35;4.28;;;1.20;;
44046;SDS011;29713;-33.888;151.150;2022-12-18T05:06:04;3.28;;;1.10;;
44046;SDS011;29713;-33.888;151.150;2022-12-18T05:08:32;4.68;;;1.05;;
44046;SDS011;29713;-33.888;151.150;2022-12-18T05:11:03;4.18;;;1.02;;
44046;SDS011;29713;-33.888;151.150;2022-12-18T05:13:32;3.75;;;1.00;;
44046;SDS011;29713;-33.888;151.150;2022-12-18T05:16:01;3.63;;;0.85;;
44046;SDS011;29713;-33.888;151.150;2022-12-18T05:18:28;3.83;;;0.85;;
44046;SDS011;29713;-33.888;151.150;2022-12-18T05:20:56;3.92;;;2.25;;
44046;SDS011;29713;-33.888;151.150;2022-12-18T05:23:24;5.88;;;3.15;;
44046;SDS011;29713;-33.888;151.150;2022-12-18T05:25:58;4.45;;;2.00;;
44046;SDS011;29713;-33.888;151.150;2022-12-18T05:28:28;3.58;;;1.23;;
44046;SDS011;29713;-33.888;151.150;2022-12-18T05:30:57;5.25;;;1.40;;
44046;SDS011;29713;-33.888;151.150;2022-12-18T05:33:29;4.63;;;1.20;;
44046;SDS011;29713;-33.888;151.150;2022-12-18T05:36:02;7.63;;;1.48;;
44046;SDS011;29713;-33.888;151.150;2022-12-18T05:38:32;3.25;;;1.48;;
44046;SDS011;29713;-33.888;151.150;2022-12-18T05:41:01;6.00;;;1.20;;
44046;SDS011;29713;-33.888;151.150;2022-12-18T05:43:29;3.30;;;1.05;;
44046;SDS011;29713;-33.888;151.150;2022-12-18T05:45:57;3.83;;;1.20;;
44046;SDS011;29713;-33.888;151.150;2022-12-18T05:48:29;5.28;;;1.15;;
44046;SDS011;29713;-33.888;151.150;2022-12-18T05:50:56;6.07;;;1.13;;
44046;SDS011;29713;-33.888;151.150;2022-12-18T05:53:33;4.30;;;1.20;;
44046;SDS011;29713;-33.888;151.150;2022-12-18T05:56:03;5.00;;;1.50;;
44046;SDS011;29713;-33.888;151.150;2022-12-18T05:58:32;7.03;;;1.30;;
44046;SDS011;29713;-33.888;151.150;2022-12-18T06:01:10;4.93;;;1.10;;
44046;SDS011;29713;-33.888;151.150;2022-12-18T06:03:43;5.05;;;1.30;;
44046;SDS011;29713;-33.888;151.150;2022-12-18T06:06:17;6.10;;;1.30;;
44046;SDS011;29713;-33.888;151.150;2022-12-18T06:08:50;4.28;;;1.30;;
44046;SDS011;29713;-33.888;151.150;2022-12-18T06:11:18;4.95;;;1.00;;
44046;SDS011;29713;-33.888;151.150;2022-12-18T06:13:51;4.20;;;1.10;;
44046;SDS011;29713;-33.888;151.150;2022-12-18T06:16:20;4.18;;;1.42;;
44046;SDS011;29713;-33.888;151.150;2022-12-18T06:18:47;5.30;;;1.42;;
44046;SDS011;29713;-33.888;151.150;2022-12-18T06:21:15;5.60;;;1.60;;
44046;SDS011;29713;-33.888;151.150;2022-12-18T06:23:42;7.43;;;1.70;;
44046;SDS011;29713;-33.888;151.150;2022-12-18T06:26:10;3.70;;;0.88;;
44046;SDS011;29713;-33.888;151.150;2022-12-18T06:28:39;5.30;;;1.20;;
44046;SDS011;29713;-33.888;151.150;2022-12-18T06:31:07;5.75;;;1.33;;
44046;SDS011;29713;-33.888;151.150;2022-12-18T06:33:35;7.38;;;1.50;;
44046;SDS011;29713;-33.888;151.150;2022-12-18T06:36:03;3.45;;;1.15;;
44046;SDS011;29713;-33.888;151.150;2022-12-18T06:38:40;5.38;;;1.02;;
44046;SDS011;29713;-33.888;151.150;2022-12-18T06:41:12;5.22;;;0.98;;
44046;SDS011;29713;-33.888;151.150;2022-12-18T06:43:41;5.07;;;1.52;;
44046;SDS011;29713;-33.888;151.150;2022-12-18T06:46:09;7.93;;;2.33;;
44046;SDS011;29713;-33.888;151.150;2022-12-18T06:48:37;5.13;;;1.20;;
44046;SDS011;29713;-33.888;151.150;2022-12-18T06:51:05;4.53;;;1.20;;
44046;SDS011;29713;-33.888;151.150;2022-12-18T06:53:33;3.63;;;1.10;;
44046;SDS011;29713;-33.888;151.150;2022-12-18T06:56:03;8.25;;;1.00;;
44046;SDS011;29713;-33.888;151.150;2022-12-18T06:58:32;5.22;;;1.33;;
44046;SDS011;29713;-33.888;151.150;2022-12-18T07:01:00;7.65;;;1.65;;
44046;SDS011;29713;-33.888;151.150;2022-12-18T07:03:29;3.33;;;0.85;;
44046;SDS011;29713;-33.888;151.150;2022-12-18T07:05:56;3.70;;;1.02;;
44046;SDS011;29713;-33.888;151.150;2022-12-18T07:08:24;3.45;;;0.95;;
44046;SDS011;29713;-33.888;151.150;2022-12-18T07:10:51;3.83;;;0.85;;
44046;SDS011;29713;-33.888;151.150;2022-12-18T07:13:19;7.40;;;1.00;;
44046;SDS011;29713;-33.888;151.150;2022-12-18T07:15:47;4.15;;;0.70;;
44046;SDS011;29713;-33.888;151.150;2022-12-18T07:18:14;4.15;;;0.85;;
44046;SDS011;29713;-33.888;151.150;2022-12-18T07:20:42;10.82;;;3.75;;
44046;SDS011;29713;-33.888;151.150;2022-12-18T07:23:09;9.27;;;4.80;;
44046;SDS011;29713;-33.888;151.150;2022-12-18T07:25:37;3.80;;;2.30;;
44046;SDS011;29713;-33.888;151.150;2022-12-18T07:28:05;12.93;;;5.40;;
44046;SDS011;29713;-33.888;151.150;2022-12-18T07:30:32;8.80;;;3.47;;
44046;SDS011;29713;-33.888;151.150;2022-12-18T07:32:59;18.65;;;10.57;;
44046;SDS011;29713;-33.888;151.150;2022-12-18T07:35:27;29.92;;;16.80;;
44046;SDS011;29713;-33.888;151.150;2022-12-18T07:37:54;6.82;;;2.90;;
44046;SDS011;29713;-33.888;151.150;2022-12-18T07:40:21;4.13;;;1.73;;
44046;SDS011;29713;-33.888;151.150;2022-12-18T07:42:49;6.40;;;1.98;;
44046;SDS011;29713;-33.888;151.150;2022-12-18T07:45:16;8.65;;;1.77;;
44046;SDS011;29713;-33.888;151.150;2022-12-18T07:47:43;7.32;;;1.35;;
44046;SDS011;29713;-33.888;151.150;2022-12-18T07:50:10;5.45;;;1.10;;
44046;SDS011;29713;-33.888;151.150;2022-12-18T07:52:38;5.07;;;1.30;;
44046;SDS011;29713;-33.888;151.150;2022-12-18T07:55:06;4.82;;;1.35;;
44046;SDS011;29713;-33.888;151.150;2022-12-18T07:57:36;5.10;;;1.60;;
44046;SDS011;29713;-33.888;151.150;2022-12-18T08:00:04;10.80;;;2.33;;
44046;SDS011;29713;-33.888;151.150;2022-12-18T08:02:32;9.40;;;2.30;;
44046;SDS011;29713;-33.888;151.150;2022-12-18T08:05:02;9.00;;;2.05;;
44046;SDS011;29713;-33.888;151.150;2022-12-18T08:07:30;8.38;;;1.52;;
44046;SDS011;29713;-33.888;151.150;2022-12-18T08:09:57;6.88;;;2.03;;
44046;SDS011;29713;-33.888;151.150;2022-12-18T08:12:24;6.38;;;1.30;;
44046;SDS011;29713;-33.888;151.150;2022-12-18T08:14:52;4.60;;;1.13;;
44046;SDS011;29713;-33.888;151.150;2022-12-18T08:17:19;6.03;;;1.25;;
44046;SDS011;29713;-33.888;151.150;2022-12-18T08:19:46;4.78;;;1.83;;
44046;SDS011;29713;-33.888;151.150;2022-12-18T08:22:14;7.20;;;2.00;;
44046;SDS011;29713;-33.888;151.150;2022-12-18T08:24:41;9.15;;;4.45;;
44046;SDS011;29713;-33.888;151.150;2022-12-18T08:27:08;9.15;;;4.75;;
44046;SDS011;29713;-33.888;151.150;2022-12-18T08:29:36;11.68;;;4.47;;
44046;SDS011;29713;-33.888;151.150;2022-12-18T08:32:03;4.40;;;1.33;;
44046;SDS011;29713;-33.888;151.150;2022-12-18T08:34:31;6.05;;;1.50;;
44046;SDS011;29713;-33.888;151.150;2022-12-18T08:36:58;4.25;;;1.58;;
44046;SDS011;29713;-33.888;151.150;2022-12-18T08:39:26;5.53;;;1.30;;
44046;SDS011;29713;-33.888;151.150;2022-12-18T08:41:53;4.43;;;1.20;;
44046;SDS011;29713;-33.888;151.150;2022-12-18T08:44:38;7.43;;;2.05;;
44046;SDS011;29713;-33.888;151.150;2022-12-18T08:47:06;5.53;;;2.35;;
44046;SDS011;29713;-33.888;151.150;2022-12-18T08:49:34;3.20;;;1.40;;
44046;SDS011;29713;-33.888;151.150;2022-12-18T08:52:02;8.70;;;2.42;;
44046;SDS011;29713;-33.888;151.150;2022-12-18T08:54:29;4.32;;;1.45;;
44046;SDS011;29713;-33.888;151.150;2022-12-18T08:56:57;6.68;;;1.63;;
44046;SDS011;29713;-33.888;151.150;2022-12-18T08:59:24;7.80;;;1.27;;
44046;SDS011;29713;-33.888;151.150;2022-12-18T09:01:54;5.75;;;1.10;;
44046;SDS011;29713;-33.888;151.150;2022-12-18T09:04:21;5.15;;;1.20;;
44046;SDS011;29713;-33.888;151.150;2022-12-18T09:06:49;3.90;;;1.00;;
44046;SDS011;29713;-33.888;151.150;2022-12-18T09:09:16;5.65;;;0.93;;
44046;SDS011;29713;-33.888;151.150;2022-12-18T09:11:44;3.80;;;0.90;;
44046;SDS011;29713;-33.888;151.150;2022-12-18T09:14:11;2.85;;;0.68;;
44046;SDS011;29713;-33.888;151.150;2022-12-18T09:16:38;6.35;;;1.10;;
44046;SDS011;29713;-33.888;151.150;2022-12-18T09:19:06;3.20;;;0.70;;
44046;SDS011;29713;-33.888;151.150;2022-12-18T09:21:38;3.80;;;0.85;;
44046;SDS011;29713;-33.888;151.150;2022-12-18T09:24:06;5.05;;;0.93;;
44046;SDS011;29713;-33.888;151.150;2022-12-18T09:26:35;3.38;;;1.00;;
44046;SDS011;29713;-33.888;151.150;2022-12-18T09:29:03;5.53;;;1.15;;
44046;SDS011;29713;-33.888;151.150;2022-12-18T09:31:32;7.05;;;1.33;;
44046;SDS011;29713;-33.888;151.150;2022-12-18T09:34:00;5.72;;;1.10;;
44046;SDS011;29713;-33.888;151.150;2022-12-18T09:36:27;2.80;;;1.20;;
44046;SDS011;29713;-33.888;151.150;2022-12-18T09:38:54;4.80;;;1.20;;
44046;SDS011;29713;-33.888;151.150;2022-12-18T09:41:31;8.15;;;1.50;;
44046;SDS011;29713;-33.888;151.150;2022-12-18T09:47:11;6.03;;;1.67;;
44046;SDS011;29713;-33.888;151.150;2022-12-18T09:49:43;8.68;;;1.42;;
44046;SDS011;29713;-33.888;151.150;2022-12-18T09:55:00;7.53;;;3.25;;
44046;SDS011;29713;-33.888;151.150;2022-12-18T09:57:41;6.20;;;1.95;;
44046;SDS011;29713;-33.888;151.150;2022-12-18T10:00:18;6.25;;;2.13;;
44046;SDS011;29713;-33.888;151.150;2022-12-18T10:02:47;11.10;;;4.75;;
44046;SDS011;29713;-33.888;151.150;2022-12-18T10:05:20;8.63;;;2.58;;
44046;SDS011;29713;-33.888;151.150;2022-12-18T10:10:48;8.38;;;2.72;;
44046;SDS011;29713;-33.888;151.150;2022-12-18T10:16:29;4.78;;;2.05;;
44046;SDS011;29713;-33.888;151.150;2022-12-18T10:19:17;9.45;;;1.88;;
44046;SDS011;29713;-33.888;151.150;2022-12-18T10:25:06;7.72;;;1.92;;
44046;SDS011;29713;-33.888;151.150;2022-12-18T10:27:47;6.85;;;1.10;;
44046;SDS011;29713;-33.888;151.150;2022-12-18T10:30:19;3.63;;;1.20;;
44046;SDS011;29713;-33.888;151.150;2022-12-18T10:32:48;5.00;;;0.93;;
44046;SDS011;29713;-33.888;151.150;2022-12-18T10:35:20;5.28;;;1.17;;
44046;SDS011;29713;-33.888;151.150;2022-12-18T10:38:06;5.88;;;1.10;;
44046;SDS011;29713;-33.888;151.150;2022-12-18T10:40:50;6.47;;;1.20;;
44046;SDS011;29713;-33.888;151.150;2022-12-18T10:43:21;4.43;;;1.38;;
44046;SDS011;29713;-33.888;151.150;2022-12-18T10:46:03;9.80;;;2.70;;
44046;SDS011;29713;-33.888;151.150;2022-12-18T10:48:31;9.65;;;2.08;;
44046;SDS011;29713;-33.888;151.150;2022-12-18T10:51:02;11.63;;;2.00;;
44046;SDS011;29713;-33.888;151.150;2022-12-18T10:53:31;8.63;;;1.73;;
44046;SDS011;29713;-33.888;151.150;2022-12-18T10:56:02;8.35;;;2.00;;
44046;SDS011;29713;-33.888;151.150;2022-12-18T10:58:32;8.07;;;1.52;;
44046;SDS011;29713;-33.888;151.150;2022-12-18T11:03:38;13.50;;;1.90;;
44046;SDS011;29713;-33.888;151.150;2022-12-18T11:06:25;7.67;;;2.00;;
44046;SDS011;29713;-33.888;151.150;2022-12-18T11:09:00;6.60;;;2.05;;
44046;SDS011;29713;-33.888;151.150;2022-12-18T11:11:29;7.73;;;1.90;;
44046;SDS011;29713;-33.888;151.150;2022-12-18T11:14:03;5.70;;;1.17;;
44046;SDS011;29713;-33.888;151.150;2022-12-18T11:16:36;8.82;;;1.65;;
44046;SDS011;29713;-33.888;151.150;2022-12-18T11:19:17;9.40;;;2.30;;
44046;SDS011;29713;-33.888;151.150;2022-12-18T11:21:55;10.82;;;1.63;;
44046;SDS011;29713;-33.888;151.150;2022-12-18T11:24:35;9.25;;;2.17;;
44046;SDS011;29713;-33.888;151.150;2022-12-18T11:27:03;7.45;;;1.60;;
44046;SDS011;29713;-33.888;151.150;2022-12-18T11:29:41;5.95;;;1.65;;
44046;SDS011;29713;-33.888;151.150;2022-12-18T11:35:03;4.60;;;1.17;;
44046;SDS011;29713;-33.888;151.150;2022-12-18T11:37:34;6.77;;;1.80;;
44046;SDS011;29713;-33.888;151.150;2022-12-18T11:40:05;3.93;;;1.50;;
44046;SDS011;29713;-33.888;151.150;2022-12-18T11:45:35;7.63;;;1.83;;
44046;SDS011;29713;-33.888;151.150;2022-12-18T11:53:16;8.23;;;2.30;;
44046;SDS011;29713;-33.888;151.150;2022-12-18T12:09:43;13.65;;;1.92;;
44046;SDS011;29713;-33.888;151.150;2022-12-18T12:12:30;10.47;;;2.07;;
44046;SDS011;29713;-33.888;151.150;2022-12-18T12:15:13;7.53;;;1.90;;
44046;SDS011;29713;-33.888;151.150;2022-12-18T12:26:02;8.93;;;2.03;;
44046;SDS011;29713;-33.888;151.150;2022-12-18T12:31:42;8.37;;;1.93;;
44046;SDS011;29713;-33.888;151.150;2022-12-18T12:34:33;10.57;;;1.80;;
44046;SDS011;29713;-33.888;151.150;2022-12-18T12:37:11;8.53;;;1.50;;
44046;SDS011;29713;-33.888;151.150;2022-12-18T12:39:51;4.97;;;1.33;;
44046;SDS011;29713;-33.888;151.150;2022-12-18T12:42:26;6.30;;;1.27;;
44046;SDS011;29713;-33.888;151.150;2022-12-18T12:45:22;4.33;;;1.30;;
44046;SDS011;29713;-33.888;151.150;2022-12-18T12:48:03;5.60;;;1.27;;
44046;SDS011;29713;-33.888;151.150;2022-12-18T12:50:36;4.00;;;1.20;;
44046;SDS011;29713;-33.888;151.150;2022-12-18T12:53:06;6.03;;;1.50;;
44046;SDS011;29713;-33.888;151.150;2022-12-18T12:55:38;10.87;;;1.73;;
44046;SDS011;29713;-33.888;151.150;2022-12-18T13:06:29;9.52;;;1.90;;
44046;SDS011;29713;-33.888;151.150;2022-12-18T13:09:22;13.50;;;2.67;;
44046;SDS011;29713;-33.888;151.150;2022-12-18T13:11:50;12.00;;;2.30;;
44046;SDS011;29713;-33.888;151.150;2022-12-18T13:14:36;11.37;;;2.17;;
44046;SDS011;29713;-33.888;151.150;2022-12-18T13:22:36;14.23;;;3.10;;
44046;SDS011;29713;-33.888;151.150;2022-12-18T13:28:14;12.70;;;2.97;;
44046;SDS011;29713;-33.888;151.150;2022-12-18T13:30:44;13.53;;;3.03;;
44046;SDS011;29713;-33.888;151.150;2022-12-18T13:36:31;15.73;;;3.00;;
44046;SDS011;29713;-33.888;151.150;2022-12-18T13:38:39;12.97;;;2.67;;
44046;SDS011;29713;-33.888;151.150;2022-12-18T13:46:43;21.20;;;3.73;;
44046;SDS011;29713;-33.888;151.150;2022-12-18T13:51:43;14.88;;;3.35;;
44046;SDS011;29713;-33.888;151.150;2022-12-18T13:54:21;30.27;;;5.27;;
44046;SDS011;29713;-33.888;151.150;2022-12-18T13:57:00;19.90;;;3.70;;
44046;SDS011;29713;-33.888;151.150;2022-12-18T14:02:14;20.07;;;4.33;;
44046;SDS011;29713;-33.888;151.150;2022-12-18T14:04:46;22.67;;;3.80;;
44046;SDS011;29713;-33.888;151.150;2022-12-18T14:07:15;23.13;;;3.80;;
44046;SDS011;29713;-33.888;151.150;2022-12-18T14:09:56;16.73;;;3.50;;
44046;SDS011;29713;-33.888;151.150;2022-12-18T14:12:32;21.53;;;3.53;;
44046;SDS011;29713;-33.888;151.150;2022-12-18T14:17:57;17.40;;;3.27;;
44046;SDS011;29713;-33.888;151.150;2022-12-18T14:20:27;15.93;;;3.37;;
44046;SDS011;29713;-33.888;151.150;2022-12-18T14:22:57;15.03;;;3.83;;
44046;SDS011;29713;-33.888;151.150;2022-12-18T14:25:29;20.73;;;3.70;;
44046;SDS011;29713;-33.888;151.150;2022-12-18T14:28:30;20.50;;;3.33;;
44046;SDS011;29713;-33.888;151.150;2022-12-18T14:30:51;15.10;;;2.50;;
44046;SDS011;29713;-33.888;151.150;2022-12-18T14:33:26;12.30;;;2.80;;
44046;SDS011;29713;-33.888;151.150;2022-12-18T14:38:32;17.70;;;2.93;;
44046;SDS011;29713;-33.888;151.150;2022-12-18T14:43:34;14.57;;;2.80;;
44046;SDS011;29713;-33.888;151.150;2022-12-18T14:46:03;13.57;;;3.10;;
44046;SDS011;29713;-33.888;151.150;2022-12-18T14:48:36;14.70;;;3.00;;
44046;SDS011;29713;-33.888;151.150;2022-12-18T14:51:06;11.47;;;3.23;;
44046;SDS011;29713;-33.888;151.150;2022-12-18T14:53:52;16.10;;;3.20;;
44046;SDS011;29713;-33.888;151.150;2022-12-18T14:56:32;13.70;;;2.87;;
44046;SDS011;29713;-33.888;151.150;2022-12-18T14:59:02;14.37;;;2.97;;
44046;SDS011;29713;-33.888;151.150;2022-12-18T15:01:44;11.73;;;2.80;;
44046;SDS011;29713;-33.888;151.150;2022-12-18T15:04:35;17.37;;;2.97;;
44046;SDS011;29713;-33.888;151.150;2022-12-18T15:20:41;10.40;;;2.03;;
44046;SDS011;29713;-33.888;151.150;2022-12-18T15:26:08;11.23;;;2.40;;
44046;SDS011;29713;-33.888;151.150;2022-12-18T15:28:47;17.50;;;3.10;;
44046;SDS011;29713;-33.888;151.150;2022-12-18T15:36:24;19.63;;;3.73;;
44046;SDS011;29713;-33.888;151.150;2022-12-18T15:39:02;16.13;;;3.37;;
44046;SDS011;29713;-33.888;151.150;2022-12-18T15:41:31;15.70;;;3.20;;
44046;SDS011;29713;-33.888;151.150;2022-12-18T15:43:59;13.05;;;3.20;;
44046;SDS011;29713;-33.888;151.150;2022-12-18T15:46:27;21.17;;;3.60;;
44046;SDS011;29713;-33.888;151.150;2022-12-18T15:48:55;17.33;;;3.13;;
44046;SDS011;29713;-33.888;151.150;2022-12-18T15:51:24;14.20;;;3.35;;
44046;SDS011;29713;-33.888;151.150;2022-12-18T15:53:58;16.17;;;3.35;;
44046;SDS011;29713;-33.888;151.150;2022-12-18T15:56:29;15.67;;;3.00;;
44046;SDS011;29713;-33.888;151.150;2022-12-18T15:59:18;20.43;;;3.73;;
44046;SDS011;29713;-33.888;151.150;2022-12-18T16:01:47;16.27;;;4.10;;
44046;SDS011;29713;-33.888;151.150;2022-12-18T16:04:17;20.00;;;3.38;;
44046;SDS011;29713;-33.888;151.150;2022-12-18T16:06:46;19.05;;;3.38;;
44046;SDS011;29713;-33.888;151.150;2022-12-18T16:09:14;14.47;;;3.00;;
44046;SDS011;29713;-33.888;151.150;2022-12-18T16:11:42;17.92;;;4.43;;
44046;SDS011;29713;-33.888;151.150;2022-12-18T16:14:17;17.70;;;3.67;;
44046;SDS011;29713;-33.888;151.150;2022-12-18T16:16:50;20.05;;;4.03;;
44046;SDS011;29713;-33.888;151.150;2022-12-18T16:19:18;20.03;;;3.87;;
44046;SDS011;29713;-33.888;151.150;2022-12-18T16:21:47;20.67;;;3.43;;
44046;SDS011;29713;-33.888;151.150;2022-12-18T16:24:16;17.90;;;3.65;;
44046;SDS011;29713;-33.888;151.150;2022-12-18T16:26:44;13.90;;;3.47;;
44046;SDS011;29713;-33.888;151.150;2022-12-18T16:29:12;15.10;;;3.10;;
44046;SDS011;29713;-33.888;151.150;2022-12-18T16:31:39;14.00;;;3.40;;
44046;SDS011;29713;-33.888;151.150;2022-12-18T16:34:13;16.07;;;3.57;;
44046;SDS011;29713;-33.888;151.150;2022-12-18T16:36:55;21.97;;;4.07;;
44046;SDS011;29713;-33.888;151.150;2022-12-18T16:39:24;14.17;;;3.30;;
44046;SDS011;29713;-33.888;151.150;2022-12-18T16:41:52;16.45;;;3.40;;
44046;SDS011;29713;-33.888;151.150;2022-12-18T16:44:19;17.20;;;3.40;;
44046;SDS011;29713;-33.888;151.150;2022-12-18T16:46:47;14.93;;;3.63;;
44046;SDS011;29713;-33.888;151.150;2022-12-18T16:49:15;17.87;;;3.17;;
44046;SDS011;29713;-33.888;151.150;2022-12-18T16:51:43;21.35;;;4.03;;
44046;SDS011;29713;-33.888;151.150;2022-12-18T16:54:13;16.17;;;3.40;;